Time;durP1;ratioP1;P1;durP2;ratioP2;P2;SDS_P1;SDS_P2;PMS_P1;PMS_P2;Temp;Humidity;BMP_temperature;BMP_pressure;BME280_temperature;BME280_humidity;BME280_pressure;Samples;Min_cycle;Max_cycle;Signal;HPM_P1;HPM_P2
2023/01/29 00:00:08;;;;;;;49.05;18.08;;;;;;;4.18;100.00;102937.00;5028955;28;20089;-40
2023/01/29 00:02:34;;;;;;;54.03;18.00;;;;;;;4.16;100.00;102933.59;5023418;28;20030;-40
2023/01/29 00:04:59;;;;;;;48.80;17.08;;;;;;;4.11;100.00;102940.13;5009761;28;20684;-40
2023/01/29 00:07:24;;;;;;;55.22;17.63;;;;;;;4.13;100.00;102928.44;5017567;28;20124;-39
2023/01/29 00:09:50;;;;;;;45.22;17.08;;;;;;;4.11;100.00;102935.66;5028610;28;20097;-40
2023/01/29 00:12:15;;;;;;;49.00;16.70;;;;;;;4.10;100.00;102933.94;5028609;28;20056;-40
2023/01/29 00:14:40;;;;;;;44.97;16.38;;;;;;;4.08;100.00;102927.84;5025990;28;20033;-40
2023/01/29 00:17:06;;;;;;;43.53;16.85;;;;;;;4.11;100.00;102925.00;5020470;28;20064;-41
2023/01/29 00:19:31;;;;;;;46.75;18.10;;;;;;;4.11;100.00;102919.66;5010939;28;20041;-40
2023/01/29 00:21:56;;;;;;;49.25;16.40;;;;;;;4.10;100.00;102925.94;5015771;28;20037;-40
2023/01/29 00:24:22;;;;;;;45.53;16.60;;;;;;;4.15;100.00;102920.34;5025453;28;20105;-40
2023/01/29 00:26:49;;;;;;;49.55;17.17;;;;;;;4.18;100.00;102921.00;5010011;28;20121;-40
2023/01/29 00:29:14;;;;;;;46.00;17.65;;;;;;;4.22;100.00;102920.84;5016223;28;20441;-40
2023/01/29 00:31:43;;;;;;;45.15;16.92;;;;;;;4.30;100.00;102923.94;5008754;28;20080;-41
2023/01/29 00:34:08;;;;;;;47.55;16.95;;;;;;;4.27;100.00;102910.78;5009329;28;20418;-40
2023/01/29 00:36:34;;;;;;;51.90;17.60;;;;;;;4.27;100.00;102910.78;5011946;28;20057;-39
2023/01/29 00:39:01;;;;;;;48.00;18.08;;;;;;;4.29;100.00;102906.19;5009951;28;20030;-39
2023/01/29 00:46:59;;;;;;;43.50;17.45;;;;;;;4.27;100.00;102892.97;5028588;28;20403;-41
2023/01/29 00:49:24;;;;;;;54.13;18.25;;;;;;;4.20;100.00;102894.28;5028001;28;20037;-41
2023/01/29 00:54:34;;;;;;;51.83;18.08;;;;;;;4.25;100.00;102875.38;5028176;28;20036;-41
2023/01/29 00:57:01;;;;;;;48.22;18.48;;;;;;;4.27;100.00;102878.81;5027023;28;20018;-41
2023/01/29 00:59:26;;;;;;;52.25;17.67;;;;;;;4.26;100.00;102880.59;5027826;28;20034;-40
2023/01/29 01:04:35;;;;;;;50.25;17.73;;;;;;;4.20;100.00;102877.44;5028550;28;20163;-41
2023/01/29 01:07:01;;;;;;;43.92;15.57;;;;;;;4.15;100.00;102883.88;5018482;28;20501;-42
2023/01/29 01:12:10;;;;;;;40.15;14.32;;;;;;;4.20;100.00;102877.44;5012788;28;20115;-40
2023/01/29 01:14:35;;;;;;;41.03;14.70;;;;;;;4.23;100.00;102877.25;5012444;28;20116;-39
2023/01/29 01:17:01;;;;;;;40.67;15.05;;;;;;;4.22;100.00;102884.41;5028635;28;20488;-40
2023/01/29 01:19:26;;;;;;;43.13;15.43;;;;;;;4.21;100.00;102877.34;5031529;28;20068;-40
2023/01/29 01:21:51;;;;;;;48.05;15.38;;;;;;;4.24;100.00;102878.97;5019038;28;20099;-40
2023/01/29 01:24:17;;;;;;;38.65;15.50;;;;;;;4.26;100.00;102885.91;5012538;28;20500;-40
2023/01/29 01:26:42;;;;;;;43.15;15.45;;;;;;;4.25;100.00;102886.88;5021068;28;20437;-40
2023/01/29 01:29:08;;;;;;;51.15;16.52;;;;;;;4.28;100.00;102889.34;5033690;28;20584;-42
2023/01/29 01:31:33;;;;;;;47.08;17.25;;;;;;;4.28;100.00;102889.34;5023778;28;20038;-39
2023/01/29 01:33:58;;;;;;;52.67;17.98;;;;;;;4.27;100.00;102897.47;5017025;28;20108;-39
2023/01/29 01:36:24;;;;;;;54.45;19.25;;;;;;;4.30;100.00;102898.13;5019330;28;20184;-40
2023/01/29 01:38:49;;;;;;;49.35;17.77;;;;;;;4.30;100.00;102900.78;5014946;28;20044;-39
2023/01/29 01:41:18;;;;;;;52.80;19.10;;;;;;;4.33;100.00;102897.09;5024595;28;20084;-39
2023/01/29 01:43:56;;;;;;;53.38;19.58;;;;;;;4.24;100.00;102898.50;5010956;28;20056;-39
2023/01/29 01:46:23;;;;;;;57.90;20.25;;;;;;;4.26;100.00;102898.38;5026972;28;20037;-40
2023/01/29 01:48:57;;;;;;;59.08;22.05;;;;;;;4.27;100.00;102887.66;5012683;28;20034;-40
2023/01/29 01:51:23;;;;;;;58.90;21.23;;;;;;;4.28;100.00;102894.69;5018101;28;20033;-40
2023/01/29 01:53:57;;;;;;;63.17;22.27;;;;;;;4.28;100.00;102893.84;5030211;28;20033;-40
2023/01/29 01:56:27;;;;;;;59.33;22.33;;;;;;;4.29;100.00;102885.75;5022814;28;20155;-41
2023/01/29 01:58:56;;;;;;;63.95;22.20;;;;;;;4.28;100.00;102888.50;5010915;28;20034;-41
2023/01/29 02:01:29;;;;;;;61.38;24.38;;;;;;;4.22;100.00;102888.88;5027276;28;20064;-40
2023/01/29 02:09:35;;;;;;;76.55;25.75;;;;;;;4.17;100.00;102874.00;5011122;28;20152;-41
2023/01/29 02:12:06;;;;;;;68.82;24.80;;;;;;;4.17;100.00;102873.16;5029170;28;20112;-40
2023/01/29 02:14:33;;;;;;;65.10;23.17;;;;;;;4.15;100.00;102875.88;5031038;28;20105;-40
2023/01/29 02:17:01;;;;;;;68.72;23.38;;;;;;;4.12;100.00;102868.06;5018791;28;20030;-40
2023/01/29 02:19:45;;;;;;;;;;;;;;;4.12;100.00;102881.41;5029193;28;20372;-40
2023/01/29 02:22:28;;;;;;;64.18;25.20;;;;;;;4.15;100.00;102881.22;5030288;28;19909;-40
2023/01/29 02:25:31;;;;;;;75.70;24.33;;;;;;;4.20;100.00;102880.09;5028956;28;20029;-40
2023/01/29 02:28:14;;;;;;;69.30;27.17;;;;;;;4.21;100.00;102887.13;5015498;28;20510;-40
2023/01/29 02:30:46;;;;;;;74.53;26.75;;;;;;;4.20;100.00;102883.63;5030650;28;20033;-40
2023/01/29 02:33:34;;;;;;;78.35;27.48;;;;;;;4.18;100.00;102886.38;5029324;28;20678;-40
2023/01/29 02:36:05;;;;;;;78.82;29.13;;;;;;;4.20;100.00;102878.28;5024215;28;20040;-40
2023/01/29 02:38:51;;;;;;;75.13;25.85;;;;;;;4.24;100.00;102886.94;5021345;28;20026;-41
2023/01/29 02:41:37;;;;;;;86.70;28.63;;;;;;;4.19;100.00;102884.59;5009812;28;20088;-42
2023/01/29 02:44:30;;;;;;;85.80;29.00;;;;;;;4.26;100.00;102899.25;5007591;28;20499;-41
2023/01/29 02:47:18;;;;;;;76.82;27.90;;;;;;;4.25;100.00;102884.22;5021607;28;20033;-41
2023/01/29 02:50:02;;;;;;;83.30;29.15;;;;;;;4.25;100.00;102880.69;5009441;28;20013;-42
2023/01/29 02:52:34;;;;;;;91.75;30.67;;;;;;;4.22;100.00;102873.72;5015975;28;20488;-42
2023/01/29 02:55:08;;;;;;;87.35;29.05;;;;;;;4.22;100.00;102872.88;5030514;28;20060;-42
2023/01/29 02:57:39;;;;;;;89.35;27.63;;;;;;;4.20;100.00;102874.78;5012824;28;20030;-38
2023/01/29 03:00:21;;;;;;;87.65;29.08;;;;;;;4.17;100.00;102871.34;5030421;28;20091;-41
2023/01/29 03:03:18;;;;;;;90.53;28.42;;;;;;;4.17;100.00;102879.31;5030425;28;20349;-40
2023/01/29 03:05:57;;;;;;;82.32;27.70;;;;;;;4.11;100.00;102882.38;5010914;28;20136;-40
2023/01/29 03:08:41;;;;;;;84.47;28.50;;;;;;;4.12;100.00;102869.88;5020403;28;20449;-41
2023/01/29 03:11:12;;;;;;;93.95;29.48;;;;;;;4.05;100.00;102864.03;5009194;28;20040;-41
2023/01/29 03:13:42;;;;;;;84.93;28.90;;;;;;;4.02;100.00;102861.56;5009389;28;20034;-41
2023/01/29 03:16:13;;;;;;;86.88;27.73;;;;;;;4.06;100.00;102862.28;5018171;28;20447;-40
2023/01/29 03:18:47;;;;;;;81.40;26.23;;;;;;;4.01;100.00;102859.00;5013257;28;20118;-40
2023/01/29 03:32:17;;;;;;;73.47;23.90;;;;;;;3.95;100.00;102844.25;5011774;28;20415;-40
2023/01/29 03:34:50;;;;;;;71.28;23.75;;;;;;;4.01;100.00;102849.22;5028958;28;20489;-39
2023/01/29 03:37:17;;;;;;;64.95;22.73;;;;;;;4.02;100.00;102848.25;5027268;28;20114;-41
2023/01/29 03:39:43;;;;;;;69.93;24.35;;;;;;;4.00;100.00;102849.28;5010074;28;20021;-41
2023/01/29 03:42:25;;;;;;;66.82;22.63;;;;;;;4.02;100.00;102845.59;5012109;28;20029;-41
2023/01/29 03:45:13;;;;;;;67.47;23.33;;;;;;;3.97;100.00;102848.50;5024830;28;20036;-40
2023/01/29 03:47:45;;;;;;;72.35;23.20;;;;;;;4.00;100.00;102844.81;5012256;28;20029;-41
2023/01/29 03:50:28;;;;;;;69.65;23.25;;;;;;;4.00;100.00;102836.81;5027633;28;20036;-40
2023/01/29 03:53:09;;;;;;;76.40;23.77;;;;;;;3.99;100.00;102829.78;5021606;28;20071;-39
2023/01/29 03:55:54;;;;;;;74.35;23.95;;;;;;;4.04;100.00;102830.38;5024933;28;20124;-43
2023/01/29 03:58:27;;;;;;;80.05;24.48;;;;;;;4.01;100.00;102825.22;5018395;28;20030;-40
2023/01/29 04:01:00;;;;;;;70.68;23.42;;;;;;;4.01;100.00;102819.91;5008472;28;20088;-40
2023/01/29 04:03:32;;;;;;;69.75;23.90;;;;;;;4.03;100.00;102826.00;5020626;28;20481;-41
2023/01/29 04:06:10;;;;;;;70.13;24.45;;;;;;;4.04;100.00;102829.53;5029143;28;20087;-39
2023/01/29 04:08:43;;;;;;;74.00;24.65;;;;;;;4.01;100.00;102829.72;5027078;28;20124;-41
2023/01/29 04:11:11;;;;;;;77.30;24.33;;;;;;;4.04;100.00;102833.03;5012151;28;20046;-41
2023/01/29 04:13:37;;;;;;;;;;;;;;;4.10;100.00;102821.16;5020563;28;20037;-41
2023/01/29 04:16:05;;;;;;;75.50;23.73;;;;;;;4.05;100.00;102824.09;5028759;28;19909;-40
2023/01/29 04:18:31;;;;;;;72.35;24.80;;;;;;;4.04;100.00;102814.38;5026919;28;20401;-41
2023/01/29 04:20:56;;;;;;;71.18;24.92;;;;;;;4.03;100.00;102812.69;5015109;28;20026;-40
2023/01/29 04:23:24;;;;;;;71.38;23.45;;;;;;;4.06;100.00;102803.66;5017764;28;20048;-41
2023/01/29 04:26:12;;;;;;;64.22;23.10;;;;;;;4.09;100.00;102809.63;5028984;28;20111;-41
2023/01/29 04:28:48;;;;;;;62.50;22.98;;;;;;;4.08;100.00;102807.94;5012738;28;20405;-41
2023/01/29 04:31:13;;;;;;;68.90;23.67;;;;;;;4.06;100.00;102803.66;5009105;28;20022;-41
2023/01/29 04:33:57;;;;;;;66.18;24.65;;;;;;;4.09;100.00;102806.97;5016412;28;20060;-40
2023/01/29 04:36:44;;;;;;;66.85;24.67;;;;;;;4.07;100.00;102798.22;5028605;28;20036;-41
2023/01/29 04:39:31;;;;;;;69.53;24.38;;;;;;;4.06;100.00;102785.84;5013218;28;20034;-41
2023/01/29 04:42:11;;;;;;;75.78;25.00;;;;;;;4.04;100.00;102785.06;5026817;28;20192;-41
2023/01/29 04:44:57;;;;;;;76.10;25.02;;;;;;;4.05;100.00;102781.44;5028227;28;20142;-40
2023/01/29 04:47:31;;;;;;;79.65;27.33;;;;;;;4.01;100.00;102781.75;5028927;28;20421;-41
2023/01/29 04:50:20;;;;;;;78.78;25.83;;;;;;;4.00;100.00;102778.19;5014776;28;21095;-41
2023/01/29 04:52:56;;;;;;;74.40;26.23;;;;;;;4.03;100.00;102767.38;5031540;28;20025;-41
2023/01/29 04:55:27;;;;;;;75.93;26.83;;;;;;;4.02;100.00;102780.78;5029433;28;20044;-41
2023/01/29 04:58:21;;;;;;;70.30;26.23;;;;;;;4.04;100.00;102779.75;5024317;28;20026;-41
2023/01/29 05:00:48;;;;;;;68.32;25.48;;;;;;;3.98;100.00;102785.44;5024260;28;20117;-40
2023/01/29 05:03:15;;;;;;;77.85;26.77;;;;;;;4.00;100.00;102783.53;5017314;28;20032;-41
2023/01/29 05:05:42;;;;;;;73.05;27.13;;;;;;;3.99;100.00;102781.81;5032203;28;20021;-41
2023/01/29 05:08:10;;;;;;;74.70;27.27;;;;;;;4.00;100.00;102777.34;5029701;28;20029;-41
2023/01/29 05:10:37;;;;;;;77.82;28.08;;;;;;;4.01;100.00;102779.94;5031446;28;20209;-40
2023/01/29 05:13:04;;;;;;;84.95;28.33;;;;;;;4.05;100.00;102764.59;5033468;28;20064;-40
2023/01/29 05:15:38;;;;;;;74.95;27.10;;;;;;;4.06;100.00;102767.19;5032101;28;20041;-40
2023/01/29 05:18:07;;;;;;;73.70;27.10;;;;;;;4.08;100.00;102767.09;5025209;28;20105;-41
2023/01/29 05:20:35;;;;;;;70.88;25.33;;;;;;;4.06;100.00;102755.69;5023819;28;20444;-40
2023/01/29 05:23:01;;;;;;;78.03;27.10;;;;;;;4.06;100.00;102755.69;5010187;28;20044;-40
2023/01/29 05:25:31;;;;;;;74.60;26.35;;;;;;;4.06;100.00;102753.03;5010505;28;20041;-40
2023/01/29 05:28:07;;;;;;;80.03;27.45;;;;;;;4.08;100.00;102743.09;5015689;28;20127;-40
2023/01/29 05:30:34;;;;;;;82.78;27.35;;;;;;;4.02;100.00;102744.34;5028853;28;20512;-41
2023/01/29 05:33:00;;;;;;;72.28;26.95;;;;;;;4.02;100.00;102744.34;5031615;28;20479;-40
2023/01/29 05:35:27;;;;;;;80.05;27.60;;;;;;;4.01;100.00;102734.66;5031147;28;20037;-41
2023/01/29 05:37:52;;;;;;;72.63;27.27;;;;;;;4.01;100.00;102747.97;5022303;28;20315;-40
2023/01/29 05:40:18;;;;;;;78.53;27.63;;;;;;;4.10;100.00;102739.41;5024315;28;20036;-39
2023/01/29 05:42:43;;;;;;;76.47;27.05;;;;;;;4.03;100.00;102735.41;5031037;28;20119;-41
2023/01/29 05:45:09;;;;;;;74.60;27.88;;;;;;;4.03;100.00;102738.06;5026816;28;20530;-42
2023/01/29 05:47:34;;;;;;;81.13;27.50;;;;;;;4.02;100.00;102739.00;5026150;28;20041;-40
2023/01/29 05:50:00;;;;;;;81.63;29.85;;;;;;;4.03;100.00;102746.06;5028194;28;20029;-40
2023/01/29 05:52:25;;;;;;;75.10;27.27;;;;;;;4.05;100.00;102749.47;5018992;28;20022;-41
2023/01/29 05:54:50;;;;;;;83.55;29.20;;;;;;;4.08;100.00;102748.44;5031488;28;20053;-41
2023/01/29 05:57:16;;;;;;;73.03;27.77;;;;;;;4.11;100.00;102742.94;5033556;28;20025;-40
2023/01/29 05:59:41;;;;;;;74.07;25.45;;;;;;;4.12;100.00;102750.81;5029628;28;20014;-39
2023/01/29 06:02:06;;;;;;;80.35;28.98;;;;;;;4.12;100.00;102749.97;5031981;28;20356;-40
2023/01/29 06:04:32;;;;;;;80.50;29.05;;;;;;;4.13;100.00;102735.69;5023029;28;20558;-41
2023/01/29 06:06:57;;;;;;;81.60;29.35;;;;;;;4.15;100.00;102742.66;5012168;28;20045;-40
2023/01/29 06:09:22;;;;;;;81.07;29.50;;;;;;;4.12;100.00;102745.50;5016100;28;20036;-39
2023/01/29 06:11:48;;;;;;;85.80;27.20;;;;;;;4.16;100.00;102741.72;5027469;28;20042;-41
2023/01/29 06:14:13;;;;;;;81.57;28.35;;;;;;;4.13;100.00;102735.69;5032196;28;20029;-41
2023/01/29 06:16:38;;;;;;;85.68;29.30;;;;;;;4.09;100.00;102739.50;5049358;28;20037;-39
2023/01/29 06:19:04;;;;;;;77.25;27.88;;;;;;;4.09;100.00;102736.84;5052048;28;20032;-41
2023/01/29 06:21:29;;;;;;;74.28;26.85;;;;;;;4.13;100.00;102733.91;5047537;28;20044;-40
2023/01/29 06:23:55;;;;;;;82.18;29.08;;;;;;;4.14;100.00;102724.09;5030364;28;20067;-40
2023/01/29 06:26:20;;;;;;;82.45;28.65;;;;;;;4.15;100.00;102726.66;5028369;28;20021;-40
2023/01/29 06:28:48;;;;;;;89.18;29.67;;;;;;;4.11;100.00;102706.50;5020883;28;20472;-40
2023/01/29 06:31:14;;;;;;;78.00;27.52;;;;;;;4.11;100.00;102719.81;5023216;28;20587;-42
2023/01/29 06:33:39;;;;;;;75.22;28.67;;;;;;;4.10;100.00;102715.41;5030807;28;20109;-41
2023/01/29 06:36:05;;;;;;;75.65;27.35;;;;;;;4.13;100.00;102723.25;5030108;28;20480;-42
2023/01/29 06:38:30;;;;;;;77.90;28.85;;;;;;;4.13;100.00;102722.38;5031102;28;20393;-40
2023/01/29 06:40:56;;;;;;;83.70;29.38;;;;;;;4.13;100.00;102711.72;5028675;28;20053;-41
2023/01/29 06:43:22;;;;;;;79.72;29.48;;;;;;;4.17;100.00;102711.44;5031052;28;20112;-40
2023/01/29 06:45:54;;;;;;;77.97;28.05;;;;;;;4.15;100.00;102705.34;5019574;28;20443;-40
2023/01/29 06:48:19;;;;;;;74.15;29.77;;;;;;;4.15;100.00;102707.16;5012688;28;20112;-42
2023/01/29 06:50:45;;;;;;;77.85;29.27;;;;;;;4.15;100.00;102708.00;5012464;28;20044;-40
2023/01/29 06:53:10;;;;;;;80.18;29.73;;;;;;;4.11;100.00;102703.81;5011233;28;20564;-41
2023/01/29 06:55:35;;;;;;;79.22;29.50;;;;;;;4.12;100.00;102700.19;5016219;28;20037;-41
2023/01/29 06:58:06;;;;;;;82.93;30.50;;;;;;;4.07;100.00;102699.63;5030860;28;20026;-41
2023/01/29 07:00:32;;;;;;;72.10;28.60;;;;;;;4.08;100.00;102695.16;5032839;28;20060;-40
2023/01/29 07:02:57;;;;;;;83.75;30.67;;;;;;;4.08;100.00;102690.69;5032536;28;20464;-40
2023/01/29 07:05:22;;;;;;;86.35;29.90;;;;;;;4.09;100.00;102700.41;5031310;28;20034;-40
2023/01/29 07:07:48;;;;;;;83.85;31.77;;;;;;;4.09;100.00;102696.88;5029458;28;20036;-41
2023/01/29 07:10:13;;;;;;;85.68;30.77;;;;;;;4.06;100.00;102707.72;5030405;28;20503;-40
2023/01/29 07:12:39;;;;;;;90.57;31.30;;;;;;;4.01;100.00;102705.34;5030402;28;20037;-40
2023/01/29 07:15:04;;;;;;;86.30;31.08;;;;;;;4.07;100.00;102710.28;5029366;28;20029;-40
2023/01/29 07:17:30;;;;;;;86.78;31.88;;;;;;;4.04;100.00;102710.47;5009880;28;20119;-41
2023/01/29 07:19:55;;;;;;;82.15;29.40;;;;;;;4.09;100.00;102707.53;5030029;28;20037;-41
2023/01/29 07:22:21;;;;;;;87.07;30.60;;;;;;;4.10;100.00;102715.41;5029531;28;20076;-41
2023/01/29 07:24:47;;;;;;;80.78;29.90;;;;;;;4.13;100.00;102720.59;5029268;28;20032;-40
2023/01/29 07:27:12;;;;;;;87.43;31.88;;;;;;;4.08;100.00;102733.34;5029013;28;20091;-40
2023/01/29 07:29:37;;;;;;;95.65;33.13;;;;;;;4.10;100.00;102730.56;5021166;28;20022;-41
2023/01/29 07:32:03;;;;;;;91.95;32.90;;;;;;;4.11;100.00;102716.31;5019203;28;20049;-40
2023/01/29 07:34:28;;;;;;;93.75;33.47;;;;;;;4.05;100.00;102722.84;5020904;28;20021;-40
2023/01/29 07:36:55;;;;;;;89.13;31.92;;;;;;;4.06;100.00;102719.25;5018116;28;20639;-40
2023/01/29 07:39:21;;;;;;;87.10;31.90;;;;;;;4.08;100.00;102716.47;5020644;28;20453;-39
2023/01/29 07:41:46;;;;;;;94.63;32.08;;;;;;;4.10;100.00;102714.56;5020990;28;20033;-40
2023/01/29 07:44:11;;;;;;;87.45;32.03;;;;;;;4.12;100.00;102708.19;5010856;28;20088;-40
2023/01/29 07:46:37;;;;;;;96.15;32.58;;;;;;;4.12;100.00;102708.19;5013194;28;20038;-41
2023/01/29 07:49:02;;;;;;;90.18;33.00;;;;;;;4.12;100.00;102707.34;5011076;28;20061;-41
2023/01/29 07:51:27;;;;;;;92.25;33.10;;;;;;;4.16;100.00;102708.84;5023129;28;20080;-41
2023/01/29 07:53:53;;;;;;;90.70;32.63;;;;;;;4.15;100.00;102709.81;5029191;28;20018;-40
2023/01/29 07:56:18;;;;;;;93.00;32.65;;;;;;;4.14;100.00;102708.13;5027487;28;20116;-40
2023/01/29 07:58:44;;;;;;;86.78;31.27;;;;;;;4.12;100.00;102705.53;5029498;28;20021;-41
2023/01/29 08:01:09;;;;;;;86.18;31.90;;;;;;;4.17;100.00;102702.59;5028348;28;20121;-40
2023/01/29 08:03:35;;;;;;;93.00;32.22;;;;;;;4.17;100.00;102695.44;5029296;28;20041;-40
2023/01/29 08:06:01;;;;;;;91.13;32.22;;;;;;;4.15;100.00;102700.00;5027547;28;20075;-43
2023/01/29 08:08:26;;;;;;;87.97;31.42;;;;;;;4.13;100.00;102701.06;5011412;28;20123;-41
2023/01/29 08:10:52;;;;;;;90.57;31.73;;;;;;;4.17;100.00;102698.09;5028627;28;20057;-40
2023/01/29 08:13:17;;;;;;;92.50;32.53;;;;;;;4.19;100.00;102695.38;5029418;28;20116;-41
2023/01/29 08:15:46;;;;;;;89.38;33.05;;;;;;;4.13;100.00;102683.28;5024443;28;20069;-41
2023/01/29 08:18:12;;;;;;;88.60;32.47;;;;;;;4.16;100.00;102692.88;5017156;28;20061;-40
2023/01/29 08:20:38;;;;;;;86.43;31.70;;;;;;;4.20;100.00;102683.75;5027872;28;20037;-41
2023/01/29 08:23:05;;;;;;;88.63;31.15;;;;;;;4.20;100.00;102677.56;5029463;28;20149;-41
2023/01/29 08:25:31;;;;;;;94.53;31.88;;;;;;;4.22;100.00;102681.00;5029247;28;20106;-40
2023/01/29 08:27:57;;;;;;;84.53;31.67;;;;;;;4.25;100.00;102678.13;5022086;28;20556;-41
2023/01/29 08:30:24;;;;;;;85.13;30.10;;;;;;;4.21;100.00;102679.25;5019417;28;20049;-42
2023/01/29 08:32:49;;;;;;;92.05;32.63;;;;;;;4.21;100.00;102673.94;5029287;28;20178;-41
2023/01/29 08:35:15;;;;;;;92.53;33.17;;;;;;;4.20;100.00;102665.09;5011464;28;20495;-40
2023/01/29 08:37:40;;;;;;;81.22;31.08;;;;;;;4.18;100.00;102662.50;5010767;28;20038;-42
2023/01/29 08:40:08;;;;;;;90.85;31.48;;;;;;;4.21;100.00;102668.59;5021783;28;20025;-39
2023/01/29 08:42:33;;;;;;;95.20;32.05;;;;;;;4.26;100.00;102666.50;5030101;28;20409;-40
2023/01/29 08:44:59;;;;;;;88.82;32.13;;;;;;;4.30;100.00;102670.72;5012918;28;20030;-42
2023/01/29 08:47:24;;;;;;;90.80;30.92;;;;;;;4.30;100.00;102668.88;5010649;28;20064;-41
2023/01/29 08:49:49;;;;;;;90.32;31.67;;;;;;;4.29;100.00;102666.31;5011256;28;20025;-41
2023/01/29 08:52:15;;;;;;;93.20;33.30;;;;;;;4.29;100.00;102667.19;5010499;28;20030;-40
2023/01/29 08:54:40;;;;;;;93.55;32.88;;;;;;;4.26;100.00;102666.50;5023579;28;20042;-40
2023/01/29 08:57:06;;;;;;;92.82;33.75;;;;;;;4.28;100.00;102665.47;5030375;28;20111;-42
2023/01/29 08:59:31;;;;;;;90.15;32.78;;;;;;;4.33;100.00;102667.84;5028353;28;20180;-40
2023/01/29 09:01:56;;;;;;;95.53;34.80;;;;;;;4.34;100.00;102669.53;5011418;28;20054;-40
2023/01/29 09:04:22;;;;;;;94.55;31.60;;;;;;;4.35;100.00;102653.47;5018080;28;20119;-40
2023/01/29 09:06:47;;;;;;;87.93;32.28;;;;;;;4.39;100.00;102660.28;5030783;28;20075;-40
2023/01/29 09:09:13;;;;;;;90.47;32.42;;;;;;;4.36;100.00;102652.50;5029464;28;20029;-40
2023/01/29 09:11:39;;;;;;;99.70;32.30;;;;;;;4.39;100.00;102651.44;5029077;28;20472;-40
2023/01/29 09:14:04;;;;;;;86.50;32.67;;;;;;;4.42;100.00;102653.06;5026657;28;20035;-39
2023/01/29 09:16:30;;;;;;;92.82;32.20;;;;;;;4.44;100.00;102656.50;5028529;28;20037;-40
2023/01/29 09:18:56;;;;;;;88.55;32.00;;;;;;;4.40;100.00;102653.19;5018931;28;20017;-41
2023/01/29 09:21:21;;;;;;;89.40;33.78;;;;;;;4.40;100.00;102658.50;5017419;28;20491;-40
2023/01/29 09:23:46;;;;;;;90.70;33.67;;;;;;;4.40;100.00;102653.19;5020750;28;20033;-39
2023/01/29 09:26:12;;;;;;;88.00;33.90;;;;;;;4.46;100.00;102652.78;5023977;28;20030;-40
2023/01/29 09:28:37;;;;;;;90.72;34.17;;;;;;;4.39;100.00;102646.97;5020926;28;20113;-40
2023/01/29 09:31:03;;;;;;;99.63;33.65;;;;;;;4.40;100.00;102647.84;5031035;28;20560;-40
2023/01/29 09:33:29;;;;;;;101.15;35.78;;;;;;;4.38;100.00;102655.09;5029704;28;20033;-42
2023/01/29 09:35:55;;;;;;;97.13;34.05;;;;;;;4.39;100.00;102656.78;5033730;28;20028;-41
2023/01/29 09:38:20;;;;;;;88.63;33.88;;;;;;;4.44;100.00;102659.16;5023311;28;20018;-42
2023/01/29 09:41:14;;;;;;;99.45;33.97;;;;;;;4.44;100.00;102646.69;5022837;28;20465;-41
2023/01/29 09:43:42;;;;;;;90.63;34.20;;;;;;;4.42;100.00;102647.72;5027350;28;20053;-41
2023/01/29 09:46:16;;;;;;;84.57;32.35;;;;;;;4.40;100.00;102647.84;5012510;28;20037;-40
2023/01/29 09:48:42;;;;;;;93.82;34.25;;;;;;;4.38;100.00;102647.94;5013573;28;20029;-41
2023/01/29 09:51:18;;;;;;;83.88;31.65;;;;;;;4.37;100.00;102648.03;5011042;28;20018;-42
2023/01/29 09:53:55;;;;;;;89.13;35.10;;;;;;;4.35;100.00;102637.47;5018964;28;20030;-39
2023/01/29 09:56:22;;;;;;;89.78;34.95;;;;;;;4.41;100.00;102644.22;5012313;28;20072;-41
2023/01/29 09:58:47;;;;;;;94.00;35.15;;;;;;;4.38;100.00;102649.75;5010296;28;20187;-40
2023/01/29 10:01:38;;;;;;;86.50;32.30;;;;;;;4.33;100.00;102641.19;5012754;28;20504;-40
2023/01/29 10:04:21;;;;;;;90.00;35.67;;;;;;;4.37;100.00;102642.69;5028037;28;20030;-39
2023/01/29 10:06:59;;;;;;;97.50;35.42;;;;;;;4.42;100.00;102629.91;5021709;28;20108;-41
2023/01/29 10:09:39;;;;;;;86.50;34.00;;;;;;;4.43;100.00;102636.13;5032770;28;20037;-41
2023/01/29 10:12:07;;;;;;;89.47;34.15;;;;;;;4.46;100.00;102634.13;5030733;28;20033;-41
2023/01/29 10:14:55;;;;;;;80.78;33.30;;;;;;;4.52;100.00;102633.72;5026339;28;20037;-42
2023/01/29 10:17:47;;;;;;;85.55;33.15;;;;;;;4.53;100.00;102627.44;5033447;28;20029;-40
2023/01/29 10:20:36;;;;;;;82.80;32.67;;;;;;;4.51;100.00;102626.69;5019154;28;20497;-40
2023/01/29 10:23:24;;;;;;;89.22;33.90;;;;;;;4.45;100.00;102629.75;5020799;28;20033;-41
2023/01/29 10:25:49;;;;;;;86.43;34.83;;;;;;;4.46;100.00;102623.47;5026374;28;20120;-40
2023/01/29 10:28:28;;;;;;;87.65;34.63;;;;;;;4.43;100.00;102626.31;5032066;28;20511;-41
2023/01/29 10:30:57;;;;;;;88.30;34.88;;;;;;;4.44;100.00;102617.34;5030624;28;20429;-41
2023/01/29 10:33:32;;;;;;;93.30;34.10;;;;;;;4.48;100.00;102618.88;5024534;28;20041;-41
2023/01/29 10:36:02;;;;;;;93.18;33.00;;;;;;;4.48;100.00;102626.88;5031661;28;20029;-41
2023/01/29 10:38:44;;;;;;;87.07;32.40;;;;;;;4.46;100.00;102598.59;5011799;28;20034;-42
2023/01/29 10:41:09;;;;;;;90.55;33.70;;;;;;;4.52;100.00;102609.72;5013525;28;20060;-41
2023/01/29 10:43:42;;;;;;;87.60;34.22;;;;;;;4.54;100.00;102606.97;5015724;28;20033;-39
2023/01/29 10:46:37;;;;;;;80.38;30.77;;;;;;;4.51;100.00;102600.03;4996566;28;20038;-41
2023/01/29 10:49:27;;;;;;;78.30;31.50;;;;;;;4.51;100.00;102600.03;4992839;28;20426;-41
2023/01/29 10:52:07;;;;;;;84.25;32.03;;;;;;;4.51;100.00;102592.03;5024470;28;20042;-41
2023/01/29 10:54:42;;;;;;;81.15;32.58;;;;;;;4.52;100.00;102587.53;5012673;28;20033;-41
2023/01/29 10:57:13;;;;;;;81.07;32.03;;;;;;;4.56;100.00;102583.72;5018671;28;20025;-40
2023/01/29 10:59:51;;;;;;;84.18;32.00;;;;;;;4.61;100.00;102589.63;5032335;28;20556;-43
2023/01/29 11:02:20;;;;;;;84.75;32.90;;;;;;;4.55;100.00;102582.00;5023006;28;20419;-39
2023/01/29 11:04:45;;;;;;;83.10;31.88;;;;;;;4.59;100.00;102578.19;5017001;28;20107;-40
2023/01/29 11:07:11;;;;;;;87.25;32.97;;;;;;;4.60;100.00;102578.06;5022503;28;20030;-40
2023/01/29 11:10:02;;;;;;;89.38;32.95;;;;;;;4.59;100.00;102578.19;5019614;28;20057;-42
2023/01/29 11:12:30;;;;;;;90.90;34.22;;;;;;;4.61;100.00;102582.47;5028574;28;20128;-41
2023/01/29 11:15:14;;;;;;;88.53;34.30;;;;;;;4.58;100.00;102573.78;5032179;28;20052;-42
2023/01/29 11:18:03;;;;;;;79.00;32.75;;;;;;;4.61;100.00;102570.97;5032366;28;20112;-41
2023/01/29 11:20:30;;;;;;;78.72;31.73;;;;;;;4.65;100.00;102569.78;5027781;28;20029;-42
2023/01/29 11:22:57;;;;;;;79.05;32.33;;;;;;;4.68;100.00;102560.72;5012808;28;20029;-41
2023/01/29 11:25:23;;;;;;;91.63;32.65;;;;;;;4.66;100.00;102573.28;5012455;28;20068;-41
2023/01/29 11:27:54;;;;;;;85.78;33.60;;;;;;;4.66;100.00;102562.63;5013504;28;20104;-40
2023/01/29 11:30:37;;;;;;;81.18;33.95;;;;;;;4.68;100.00;102561.56;5029546;28;20025;-40
2023/01/29 11:33:11;;;;;;;86.40;34.42;;;;;;;4.66;100.00;102559.97;5017219;28;20413;-40
2023/01/29 11:35:37;;;;;;;87.68;32.58;;;;;;;4.65;100.00;102550.25;5012270;28;20030;-41
2023/01/29 11:38:29;;;;;;;80.82;32.95;;;;;;;4.68;100.00;102552.72;5021154;28;20523;-40
2023/01/29 11:41:05;;;;;;;79.22;33.05;;;;;;;4.68;100.00;102555.38;5023307;28;20551;-40
2023/01/29 11:43:31;;;;;;;84.32;31.55;;;;;;;4.71;100.00;102545.34;5012615;28;20029;-41
2023/01/29 11:46:05;;;;;;;75.07;31.05;;;;;;;4.68;100.00;102540.22;5011828;28;20030;-42
2023/01/29 11:48:39;;;;;;;90.45;34.40;;;;;;;4.71;100.00;102531.19;5011882;28;20034;-41
2023/01/29 11:51:05;;;;;;;86.82;33.58;;;;;;;4.75;100.00;102535.38;5019057;28;20029;-41
2023/01/29 11:53:37;;;;;;;79.25;33.60;;;;;;;4.71;100.00;102528.50;5001295;28;20215;-41